Time;durP1;ratioP1;P1;durP2;ratioP2;P2;SDS_P1;SDS_P2;PMS_P1;PMS_P2;Temp;Humidity;BMP_temperature;BMP_pressure;BME280_temperature;BME280_humidity;BME280_pressure;Samples;Min_cycle;Max_cycle;Signal;HPM_P1;HPM_P2
2024/03/23 00:04:21;;;;;;;4.83;4.47;;;15.60;35.70;;;;;;10382277;28;20260;-70
2024/03/23 00:09:27;;;;;;;4.70;4.20;;;15.60;35.70;;;;;;10390080;28;20778;-70
2024/03/23 00:14:33;;;;;;;5.03;4.63;;;15.60;35.60;;;;;;10381476;28;20253;-70
2024/03/23 00:19:39;;;;;;;5.27;4.83;;;15.60;35.50;;;;;;10381498;28;20324;-70
2024/03/23 00:24:45;;;;;;;4.50;4.10;;;15.60;35.30;;;;;;10382131;28;20269;-70
2024/03/23 00:29:51;;;;;;;5.47;4.97;;;15.50;35.20;;;;;;10380946;28;20268;-70
2024/03/23 00:34:57;;;;;;;5.93;5.43;;;15.50;35.00;;;;;;10380159;28;20292;-70
2024/03/23 00:40:03;;;;;;;5.50;5.00;;;15.30;34.90;;;;;;10377352;28;20318;-69
2024/03/23 00:45:09;;;;;;;5.67;4.77;;;15.00;35.10;;;;;;10383279;28;20253;-70
2024/03/23 00:50:15;;;;;;;4.40;4.00;;;14.90;35.30;;;;;;10378927;28;20972;-70
2024/03/23 00:55:19;;;;;;;4.40;4.00;;;14.80;35.50;;;;;;10381742;28;20257;-70
2024/03/23 01:00:21;;;;;;;5.10;4.60;;;14.70;35.50;;;;;;10384808;28;20294;-70
2024/03/23 01:05:23;;;;;;;5.20;4.70;;;14.70;35.20;;;;;;10380333;28;20246;-70
2024/03/23 01:10:27;;;;;;;4.67;4.27;;;14.60;35.10;;;;;;10380897;28;20322;-70
2024/03/23 01:15:29;;;;;;;5.13;4.53;;;14.50;35.10;;;;;;10382475;28;20241;-70
2024/03/23 01:20:31;;;;;;;4.40;3.87;;;14.50;35.00;;;;;;10385844;28;20328;-70
2024/03/23 01:25:34;;;;;;;4.33;3.93;;;14.20;34.80;;;;;;10371468;28;20312;-70
2024/03/23 01:30:37;;;;;;;4.70;4.30;;;14.00;35.50;;;;;;10369682;28;20246;-70
2024/03/23 01:35:39;;;;;;;4.77;4.27;;;13.90;35.40;;;;;;10375092;28;20265;-70
2024/03/23 01:40:43;;;;;;;5.30;4.30;;;13.90;36.20;;;;;;10341914;28;20322;-70
2024/03/23 01:45:45;;;;;;;4.03;3.57;;;13.90;35.60;;;;;;10350684;28;20288;-70
2024/03/23 01:50:48;;;;;;;4.80;4.30;;;13.90;35.40;;;;;;10340103;28;20306;-70
2024/03/23 01:55:52;;;;;;;4.07;3.63;;;13.90;35.30;;;;;;10374433;28;20245;-70
2024/03/23 02:00:54;;;;;;;4.43;4.10;;;13.90;35.30;;;;;;10338535;28;20254;-70
2024/03/23 02:05:58;;;;;;;4.90;3.90;;;13.90;35.30;;;;;;10338644;28;20247;-70
2024/03/23 02:11:01;;;;;;;3.50;3.20;;;13.90;35.10;;;;;;10341414;28;20273;-70
2024/03/23 02:16:05;;;;;;;4.60;3.97;;;13.80;35.00;;;;;;10364776;28;20249;-70
2024/03/23 02:21:08;;;;;;;4.50;4.10;;;13.80;35.00;;;;;;10352322;28;20253;-70
2024/03/23 02:26:11;;;;;;;3.73;3.40;;;13.70;34.90;;;;;;10340669;28;20242;-70
2024/03/23 02:31:15;;;;;;;3.73;3.43;;;13.70;35.10;;;;;;10357799;28;20320;-70
2024/03/23 02:36:17;;;;;;;4.07;3.67;;;13.60;34.80;;;;;;10360043;28;20258;-70
2024/03/23 02:41:22;;;;;;;3.50;3.20;;;13.50;34.70;;;;;;10367946;28;20268;-70
2024/03/23 02:46:25;;;;;;;3.77;3.47;;;13.30;34.80;;;;;;10350936;28;20250;-70
2024/03/23 02:51:27;;;;;;;3.67;3.37;;;13.10;35.00;;;;;;10352191;28;20254;-70
2024/03/23 02:56:30;;;;;;;3.73;3.43;;;12.90;35.30;;;;;;10353916;28;22192;-70
2024/03/23 03:01:32;;;;;;;3.93;3.30;;;12.60;35.60;;;;;;10350607;28;20238;-70
2024/03/23 03:06:35;;;;;;;3.73;3.40;;;12.50;35.80;;;;;;10359089;28;20265;-70
2024/03/23 03:11:38;;;;;;;3.20;2.63;;;12.30;35.90;;;;;;10361498;28;20246;-70
2024/03/23 03:16:40;;;;;;;3.80;3.30;;;12.20;36.00;;;;;;10345499;28;20764;-69
2024/03/23 03:21:43;;;;;;;3.30;3.00;;;12.20;36.20;;;;;;10344667;28;20274;-70
2024/03/23 03:26:46;;;;;;;3.37;3.07;;;12.20;36.20;;;;;;10348467;28;20260;-69
2024/03/23 03:31:49;;;;;;;3.33;3.03;;;12.10;36.30;;;;;;10376675;28;20246;-69
2024/03/23 03:36:52;;;;;;;3.03;2.83;;;12.10;36.40;;;;;;10355535;28;20711;-69
2024/03/23 03:41:55;;;;;;;3.20;3.00;;;12.10;36.60;;;;;;10355389;28;20300;-69
2024/03/23 03:46:57;;;;;;;3.90;2.70;;;12.00;36.80;;;;;;10354745;28;20321;-69
2024/03/23 03:52:01;;;;;;;3.57;2.67;;;12.00;36.80;;;;;;10367342;28;20267;-70
2024/03/23 03:57:05;;;;;;;2.90;2.70;;;12.10;37.00;;;;;;10368326;28;20834;-70
2024/03/23 04:02:07;;;;;;;2.80;2.60;;;12.20;37.30;;;;;;10360266;28;20307;-70
2024/03/23 04:07:09;;;;;;;3.27;2.50;;;12.20;37.00;;;;;;10345888;28;20267;-70
2024/03/23 04:12:13;;;;;;;2.73;2.53;;;12.30;37.80;;;;;;10350206;28;20258;-70
2024/03/23 04:17:16;;;;;;;3.13;2.60;;;12.50;37.30;;;;;;10345672;28;20258;-70
2024/03/23 04:22:18;;;;;;;2.90;2.70;;;12.60;37.20;;;;;;10347074;28;20989;-70
2024/03/23 04:27:22;;;;;;;2.93;2.43;;;12.80;37.10;;;;;;10345933;28;20290;-70
2024/03/23 04:32:24;;;;;;;2.53;2.33;;;12.90;37.10;;;;;;10364536;28;20264;-70
2024/03/23 04:37:26;;;;;;;2.63;2.43;;;12.90;36.90;;;;;;10367223;28;20829;-70
2024/03/23 04:42:29;;;;;;;2.70;2.50;;;13.00;36.90;;;;;;10382586;28;20313;-70
2024/03/23 04:47:32;;;;;;;2.50;2.37;;;13.00;36.90;;;;;;10395665;28;21137;-69
2024/03/23 04:52:34;;;;;;;3.67;2.70;;;13.10;36.90;;;;;;10383742;28;20279;-70
2024/03/23 04:57:38;;;;;;;2.93;2.27;;;13.10;36.90;;;;;;10379934;28;20297;-70
2024/03/23 05:02:40;;;;;;;2.57;2.33;;;13.20;37.00;;;;;;10381352;28;20292;-70
2024/03/23 05:07:42;;;;;;;3.50;2.60;;;13.20;36.70;;;;;;10373538;28;20765;-70
2024/03/23 05:12:46;;;;;;;4.43;2.80;;;13.30;36.80;;;;;;10387552;28;20254;-69
2024/03/23 05:17:48;;;;;;;4.00;2.40;;;13.40;36.90;;;;;;10379458;28;20249;-70
2024/03/23 05:22:51;;;;;;;3.50;2.40;;;13.50;36.90;;;;;;10385034;28;20254;-70
2024/03/23 05:27:54;;;;;;;3.33;2.57;;;13.50;36.80;;;;;;10381655;28;20295;-69
2024/03/23 05:32:57;;;;;;;3.27;2.50;;;13.60;36.80;;;;;;10382128;28;20257;-70
2024/03/23 05:37:59;;;;;;;2.50;2.30;;;13.70;36.80;;;;;;10379181;28;20961;-69
2024/03/23 05:43:03;;;;;;;2.70;2.30;;;13.70;36.70;;;;;;10377915;28;20268;-69
2024/03/23 05:48:07;;;;;;;2.60;2.40;;;13.80;36.90;;;;;;10375880;28;20237;-70
2024/03/23 05:53:09;;;;;;;2.50;2.30;;;13.80;36.70;;;;;;10379747;28;20948;-70
2024/03/23 05:58:13;;;;;;;2.27;2.17;;;13.80;36.90;;;;;;10381558;28;20344;-69
2024/03/23 06:03:16;;;;;;;2.50;2.30;;;13.90;37.20;;;;;;10379332;28;21056;-70
2024/03/23 06:08:18;;;;;;;2.73;2.30;;;13.90;37.10;;;;;;10381488;28;20312;-70
2024/03/23 06:13:24;;;;;;;4.63;2.70;;;14.00;37.10;;;;;;10380513;28;20256;-70
2024/03/23 06:18:27;;;;;;;3.83;2.30;;;14.10;37.10;;;;;;10381171;28;20260;-70
2024/03/23 06:23:29;;;;;;;2.10;2.00;;;14.10;37.10;;;;;;10377849;28;20257;-70
2024/03/23 06:28:33;;;;;;;2.30;2.10;;;14.20;37.30;;;;;;10378042;28;20241;-69
2024/03/23 06:33:35;;;;;;;2.80;2.00;;;14.40;37.30;;;;;;10377693;28;20311;-69
2024/03/23 06:38:38;;;;;;;2.27;2.00;;;14.70;37.30;;;;;;10380984;28;20253;-69
2024/03/23 06:43:41;;;;;;;2.50;1.97;;;14.90;37.00;;;;;;10381672;28;20272;-69
2024/03/23 06:48:45;;;;;;;1.97;1.87;;;15.20;36.80;;;;;;10373552;28;20312;-69
2024/03/23 06:53:47;;;;;;;2.10;2.00;;;15.50;36.80;;;;;;10373582;28;20253;-70
2024/03/23 06:58:51;;;;;;;2.50;1.90;;;15.80;36.50;;;;;;10374804;28;20663;-70
2024/03/23 07:03:53;;;;;;;2.00;1.80;;;16.00;36.00;;;;;;10377678;28;20753;-70
2024/03/23 07:08:55;;;;;;;2.30;2.10;;;16.20;35.80;;;;;;10381467;28;20253;-70
2024/03/23 07:13:59;;;;;;;2.37;1.90;;;16.30;35.70;;;;;;10378856;28;20789;-69
2024/03/23 07:19:01;;;;;;;2.30;2.10;;;16.40;35.20;;;;;;10377843;28;20309;-70
2024/03/23 07:24:03;;;;;;;1.90;1.80;;;16.50;35.40;;;;;;10381566;28;20245;-70
2024/03/23 07:29:08;;;;;;;3.73;2.10;;;16.50;35.60;;;;;;10387685;28;20272;-70
2024/03/23 07:34:10;;;;;;;3.97;2.90;;;16.40;35.20;;;;;;10346184;28;20325;-70
2024/03/23 07:39:12;;;;;;;4.13;3.60;;;16.40;35.40;;;;;;10346635;28;20899;-70
2024/03/23 07:44:16;;;;;;;4.57;4.13;;;16.20;35.40;;;;;;10349296;28;20282;-70
2024/03/23 07:49:18;;;;;;;4.67;4.30;;;15.90;35.70;;;;;;10342600;28;23466;-70
2024/03/23 07:54:20;;;;;;;4.77;4.30;;;15.50;35.50;;;;;;10377528;28;20241;-70
2024/03/23 07:59:25;;;;;;;4.70;4.30;;;14.90;35.90;;;;;;10350377;28;20313;-69
2024/03/23 08:04:28;;;;;;;4.90;4.50;;;14.50;36.70;;;;;;10360818;28;20736;-70
2024/03/23 08:09:31;;;;;;;4.50;4.10;;;14.20;37.10;;;;;;10342799;28;20732;-70
2024/03/23 08:14:34;;;;;;;5.07;4.53;;;13.90;37.00;;;;;;10350977;28;20337;-70
2024/03/23 08:19:36;;;;;;;4.10;3.70;;;13.70;37.70;;;;;;10341718;28;20788;-70
2024/03/23 08:24:39;;;;;;;3.43;3.13;;;13.60;37.60;;;;;;10339897;28;20246;-70
2024/03/23 08:29:42;;;;;;;4.33;3.93;;;13.40;38.00;;;;;;10374789;28;20300;-70
2024/03/23 08:34:45;;;;;;;6.70;6.00;;;13.40;38.40;;;;;;10376131;28;20308;-69
2024/03/23 08:39:47;;;;;;;4.93;4.17;;;13.30;38.20;;;;;;10342885;28;20761;-70
2024/03/23 08:44:50;;;;;;;4.63;4.23;;;13.20;38.30;;;;;;10344027;28;20253;-69
2024/03/23 08:49:53;;;;;;;3.53;3.10;;;13.20;38.70;;;;;;10342887;28;20713;-70
2024/03/23 08:54:55;;;;;;;3.27;2.83;;;13.20;38.30;;;;;;10339636;28;20255;-70
2024/03/23 08:59:59;;;;;;;2.97;2.77;;;13.10;38.30;;;;;;10372094;28;20364;-70
2024/03/23 09:05:04;;;;;;;2.97;2.67;;;13.20;39.00;;;;;;10385871;28;20710;-70
2024/03/23 09:10:08;;;;;;;3.33;2.50;;;13.20;38.80;;;;;;10385239;28;20245;-70
2024/03/23 09:15:12;;;;;;;2.67;2.47;;;13.20;38.70;;;;;;10376404;28;20308;-70
2024/03/23 09:20:14;;;;;;;2.43;2.23;;;13.20;39.00;;;;;;10394257;28;20524;-70
2024/03/23 09:25:16;;;;;;;3.50;2.17;;;13.30;39.00;;;;;;10383551;28;20291;-70
2024/03/23 09:30:20;;;;;;;2.17;2.07;;;13.30;39.10;;;;;;10339426;28;20795;-70
2024/03/23 09:35:23;;;;;;;2.13;2.03;;;13.40;38.90;;;;;;10334672;28;20261;-70
2024/03/23 09:40:25;;;;;;;1.80;1.70;;;13.50;38.70;;;;;;10339821;28;20246;-70
2024/03/23 09:45:30;;;;;;;1.80;1.70;;;13.60;38.20;;;;;;10336076;28;20364;-71
2024/03/23 09:50:32;;;;;;;2.00;1.90;;;13.60;37.70;;;;;;10332349;28;20795;-71
2024/03/23 09:55:35;;;;;;;1.53;1.43;;;13.50;37.60;;;;;;10333155;28;20840;-71
2024/03/23 10:00:39;;;;;;;1.20;1.20;;;13.60;37.90;;;;;;10347550;28;20324;-71
2024/03/23 10:05:42;;;;;;;1.00;1.00;;;13.60;37.10;;;;;;10330954;28;20669;-71
2024/03/23 10:10:44;;;;;;;1.73;1.10;;;13.60;37.00;;;;;;10327777;28;20337;-71
2024/03/23 10:15:56;;;;;;;1.30;1.20;;;13.60;36.80;;;;;;10329170;28;20380;-71
2024/03/23 10:21:10;;;;;;;1.40;1.30;;;13.50;36.40;;;;;;10349429;28;20346;-71
2024/03/23 10:26:18;;;;;;;1.00;1.00;;;13.40;36.90;;;;;;10365518;28;20311;-71
2024/03/23 10:31:22;;;;;;;1.00;1.00;;;13.40;36.30;;;;;;10369279;28;20321;-71
2024/03/23 10:36:26;;;;;;;1.00;1.00;;;13.40;35.90;;;;;;10387092;28;20237;-71
2024/03/23 10:41:30;;;;;;;1.00;1.00;;;13.30;36.20;;;;;;10373988;28;20328;-71
2024/03/23 10:46:33;;;;;;;1.10;1.10;;;13.30;35.90;;;;;;10371706;28;20320;-70
2024/03/23 10:51:36;;;;;;;0.80;0.80;;;13.20;35.80;;;;;;10368366;28;20312;-71
2024/03/23 10:56:42;;;;;;;1.33;1.00;;;13.10;35.10;;;;;;10375019;28;20315;-71
2024/03/23 11:02:02;;;;;;;1.10;1.10;;;13.00;35.80;;;;;;10380793;28;20324;-71
2024/03/23 11:07:29;;;;;;;1.23;1.17;;;12.90;35.20;;;;;;10371146;28;20304;-71
2024/03/23 11:12:35;;;;;;;1.13;1.07;;;12.80;35.20;;;;;;10370363;28;20328;-71
2024/03/23 11:17:39;;;;;;;1.37;1.27;;;12.80;35.60;;;;;;10376710;28;20305;-72
2024/03/23 11:22:43;;;;;;;1.40;1.30;;;12.80;35.50;;;;;;10372417;28;20245;-71
2024/03/23 11:27:46;;;;;;;1.50;1.40;;;12.80;34.90;;;;;;10372358;28;20320;-72
2024/03/23 11:32:51;;;;;;;1.33;1.17;;;12.80;35.70;;;;;;10383982;28;20245;-72
2024/03/23 11:38:07;;;;;;;1.20;1.20;;;12.80;35.80;;;;;;10396878;28;20238;-71
2024/03/23 11:43:10;;;;;;;1.50;1.40;;;12.90;35.80;;;;;;10378813;28;20654;-71
2024/03/23 11:48:15;;;;;;;1.53;1.43;;;12.90;35.70;;;;;;10384648;28;20323;-71
2024/03/23 11:53:18;;;;;;;1.67;1.50;;;13.00;35.30;;;;;;10385681;28;20778;-71
2024/03/23 11:58:22;;;;;;;1.60;1.50;;;13.00;34.80;;;;;;10383354;28;20241;-71
2024/03/23 12:03:28;;;;;;;2.10;1.73;;;13.00;35.00;;;;;;10390004;28;20253;-71
2024/03/23 12:08:31;;;;;;;1.90;1.67;;;13.00;33.70;;;;;;10382520;28;20929;-71
2024/03/23 12:13:34;;;;;;;2.53;2.00;;;13.10;34.60;;;;;;10378558;28;20284;-71
2024/03/23 12:18:38;;;;;;;2.23;1.90;;;13.20;32.70;;;;;;10381812;28;22608;-71
2024/03/23 12:23:42;;;;;;;2.53;2.10;;;13.10;32.00;;;;;;10388186;28;20261;-71
2024/03/23 12:28:45;;;;;;;3.37;2.30;;;13.00;32.20;;;;;;10384829;28;20290;-72
2024/03/23 12:33:48;;;;;;;2.67;2.20;;;13.00;32.00;;;;;;10382329;28;20307;-71
2024/03/23 12:38:50;;;;;;;3.70;2.13;;;12.90;31.50;;;;;;10382126;28;20825;-71
2024/03/23 12:43:52;;;;;;;3.10;2.17;;;12.90;32.30;;;;;;10380066;28;20257;-71
2024/03/23 12:48:58;;;;;;;3.03;2.73;;;13.00;32.50;;;;;;10383455;28;20316;-70
2024/03/23 12:54:00;;;;;;;2.60;2.40;;;13.00;32.10;;;;;;10385842;28;20257;-70
2024/03/23 12:59:02;;;;;;;3.60;2.67;;;13.00;31.60;;;;;;10380548;28;20336;-70
2024/03/23 13:04:06;;;;;;;2.87;2.10;;;13.00;31.60;;;;;;10382583;28;20272;-70
2024/03/23 13:09:09;;;;;;;4.10;2.67;;;12.90;31.60;;;;;;10377965;28;20245;-71
2024/03/23 13:14:11;;;;;;;2.93;2.67;;;12.90;31.70;;;;;;10377101;28;20299;-71
2024/03/23 13:19:15;;;;;;;5.60;2.93;;;12.90;31.50;;;;;;10382938;28;20260;-71
2024/03/23 13:24:17;;;;;;;6.23;3.57;;;12.80;31.00;;;;;;10393693;28;20261;-71
2024/03/23 13:29:20;;;;;;;3.70;2.80;;;12.70;31.50;;;;;;10377425;28;20357;-70
2024/03/23 13:34:23;;;;;;;2.87;2.53;;;12.70;31.20;;;;;;10376780;28;20249;-71
2024/03/23 13:39:27;;;;;;;4.17;3.00;;;12.60;31.00;;;;;;10375550;28;20317;-70
2024/03/23 13:44:29;;;;;;;4.67;2.80;;;12.50;30.90;;;;;;10382610;28;20717;-71
2024/03/23 13:49:33;;;;;;;2.73;2.50;;;12.40;31.40;;;;;;10375793;28;20364;-71
2024/03/23 13:54:35;;;;;;;3.20;2.63;;;12.20;32.20;;;;;;10380211;28;20253;-70
2024/03/23 13:59:38;;;;;;;3.37;2.70;;;12.00;32.80;;;;;;10352203;28;20364;-71
2024/03/23 14:04:42;;;;;;;3.43;2.50;;;11.70;32.70;;;;;;10338784;28;20273;-71
2024/03/23 14:09:44;;;;;;;4.63;3.30;;;11.50;33.30;;;;;;10338409;28;20247;-71
2024/03/23 14:14:47;;;;;;;3.30;2.60;;;11.20;33.70;;;;;;10338952;28;20241;-71
2024/03/23 14:19:51;;;;;;;3.37;2.63;;;11.00;34.00;;;;;;10335388;28;20237;-71
2024/03/23 14:24:54;;;;;;;4.17;2.50;;;10.80;34.40;;;;;;10324399;28;20306;-70
2024/03/23 14:29:56;;;;;;;3.33;2.40;;;10.80;34.60;;;;;;10345326;28;20250;-70
2024/03/23 14:35:00;;;;;;;4.17;2.67;;;10.70;34.70;;;;;;10322138;28;20336;-70
2024/03/23 14:40:03;;;;;;;4.07;3.10;;;10.60;35.00;;;;;;10362966;28;20348;-70
2024/03/23 14:45:07;;;;;;;4.60;3.07;;;10.60;35.20;;;;;;10341391;28;20324;-70
2024/03/23 14:50:15;;;;;;;2.87;2.60;;;10.70;35.30;;;;;;10325520;28;20254;-70
2024/03/23 14:55:17;;;;;;;3.83;2.53;;;10.60;35.50;;;;;;10377076;28;20257;-70
2024/03/23 15:00:19;;;;;;;2.80;2.23;;;10.70;35.40;;;;;;10382160;28;20727;-70
2024/03/23 15:05:23;;;;;;;3.17;2.30;;;10.80;35.50;;;;;;10374590;28;20313;-70
2024/03/23 15:10:25;;;;;;;2.60;2.40;;;10.90;35.40;;;;;;10332343;28;20261;-70
2024/03/23 15:15:27;;;;;;;3.07;2.40;;;11.00;35.40;;;;;;10329889;28;20288;-70
2024/03/23 15:20:31;;;;;;;3.73;2.33;;;11.10;35.30;;;;;;10329352;28;20318;-70
2024/03/23 15:25:34;;;;;;;3.10;2.03;;;11.20;35.10;;;;;;10349772;28;20256;-70
2024/03/23 15:30:36;;;;;;;2.30;1.70;;;11.30;35.10;;;;;;10327993;28;20309;-69
2024/03/23 15:35:39;;;;;;;3.23;2.10;;;11.30;35.30;;;;;;10320188;28;20305;-70
2024/03/23 15:40:42;;;;;;;4.63;2.57;;;11.40;35.10;;;;;;10324507;28;20314;-69
2024/03/23 15:45:45;;;;;;;4.90;3.57;;;11.40;34.80;;;;;;10367013;28;20787;-70
2024/03/23 15:50:53;;;;;;;3.50;3.20;;;11.40;34.90;;;;;;10396479;28;20317;-69
2024/03/23 15:55:55;;;;;;;3.97;2.13;;;11.50;34.70;;;;;;10380930;28;20262;-70
2024/03/23 16:00:59;;;;;;;2.87;2.40;;;11.60;34.10;;;;;;10384091;28;20246;-70
2024/03/23 16:06:05;;;;;;;2.77;1.90;;;11.70;33.70;;;;;;10366607;28;20254;-70
2024/03/23 16:11:08;;;;;;;3.00;1.73;;;11.80;33.40;;;;;;10370206;28;20297;-69
2024/03/23 16:16:10;;;;;;;2.80;2.10;;;11.90;33.60;;;;;;10344115;28;20298;-69
2024/03/23 16:21:14;;;;;;;3.47;2.40;;;11.90;33.30;;;;;;10349370;28;20251;-69
2024/03/23 16:26:17;;;;;;;3.30;1.93;;;11.90;32.40;;;;;;10342984;28;20255;-69
2024/03/23 16:31:19;;;;;;;4.17;1.80;;;11.90;32.90;;;;;;10351531;28;20308;-71
2024/03/23 16:36:22;;;;;;;4.53;1.83;;;11.90;32.90;;;;;;10376617;28;20324;-71
2024/03/23 16:41:25;;;;;;;3.30;1.20;;;11.90;32.70;;;;;;10333240;28;20357;-71
2024/03/23 16:46:27;;;;;;;1.83;1.20;;;11.80;32.30;;;;;;10344244;28;20296;-71
2024/03/23 16:51:31;;;;;;;2.07;1.30;;;11.40;32.40;;;;;;10338063;28;20321;-72
2024/03/23 16:56:33;;;;;;;2.20;1.30;;;10.80;33.20;;;;;;10331057;28;20665;-72
2024/03/23 17:01:35;;;;;;;2.67;1.17;;;10.30;33.90;;;;;;10336138;28;20329;-72
2024/03/23 17:06:39;;;;;;;2.10;1.50;;;9.90;35.20;;;;;;10337906;28;20628;-71
2024/03/23 17:11:43;;;;;;;1.87;1.10;;;9.70;35.90;;;;;;10341802;28;20250;-71
2024/03/23 17:16:46;;;;;;;2.17;1.60;;;9.60;36.00;;;;;;10343792;28;20333;-72
2024/03/23 17:21:49;;;;;;;1.60;1.47;;;9.60;36.00;;;;;;10339406;28;20852;-73
2024/03/23 17:26:52;;;;;;;1.77;1.40;;;9.60;36.30;;;;;;10339054;28;20273;-72
2024/03/23 17:31:54;;;;;;;2.57;2.37;;;9.60;36.20;;;;;;10338334;28;20265;-73
2024/03/23 17:36:58;;;;;;;3.10;2.80;;;9.60;36.40;;;;;;10340103;28;20246;-72
2024/03/23 17:42:00;;;;;;;2.57;2.10;;;9.70;36.30;;;;;;10355609;28;20259;-72
2024/03/23 17:47:02;;;;;;;2.30;1.80;;;9.70;36.20;;;;;;10340567;28;20388;-72
2024/03/23 17:52:11;;;;;;;4.30;2.90;;;9.70;36.10;;;;;;10341661;28;20285;-73
2024/03/23 17:57:13;;;;;;;4.03;3.30;;;9.80;36.40;;;;;;10342597;28;20308;-72
2024/03/23 18:02:16;;;;;;;5.53;3.07;;;9.90;36.20;;;;;;10342654;28;20261;-73
2024/03/23 18:07:19;;;;;;;3.10;2.80;;;10.00;35.00;;;;;;10346325;28;20762;-73
2024/03/23 18:12:23;;;;;;;1.67;1.57;;;10.00;34.90;;;;;;10342443;28;20300;-73
2024/03/23 18:17:25;;;;;;;2.30;2.10;;;9.90;35.40;;;;;;10372393;28;20264;-73
2024/03/23 18:22:29;;;;;;;3.17;2.37;;;9.80;35.60;;;;;;10378354;28;20303;-73
2024/03/23 18:27:31;;;;;;;2.73;1.80;;;9.70;35.80;;;;;;10380609;28;20650;-73
2024/03/23 18:32:33;;;;;;;2.50;1.90;;;9.70;35.70;;;;;;10382114;28;20253;-73
2024/03/23 18:37:37;;;;;;;1.33;1.23;;;9.60;35.80;;;;;;10355930;28;20245;-73
2024/03/23 18:42:40;;;;;;;3.20;2.90;;;9.50;35.90;;;;;;10354396;28;20329;-73
2024/03/23 18:47:42;;;;;;;3.00;2.70;;;9.40;35.90;;;;;;10340756;28;20253;-73
2024/03/23 18:52:45;;;;;;;1.63;1.53;;;9.40;36.00;;;;;;10378130;28;20273;-73
2024/03/23 18:57:47;;;;;;;1.43;1.33;;;9.20;36.10;;;;;;10337526;28;20294;-73
2024/03/23 19:02:50;;;;;;;3.33;1.57;;;9.10;36.10;;;;;;10331598;28;20684;-73
2024/03/23 19:07:54;;;;;;;1.50;1.27;;;9.00;36.30;;;;;;10337398;28;20737;-73
2024/03/23 19:12:56;;;;;;;2.30;1.27;;;8.90;36.50;;;;;;10335942;28;20698;-73
2024/03/23 19:17:58;;;;;;;1.33;1.17;;;8.90;36.50;;;;;;10334909;28;20254;-72
2024/03/23 19:23:02;;;;;;;1.40;1.00;;;8.90;36.60;;;;;;10343144;28;20305;-72
2024/03/23 19:28:05;;;;;;;2.63;2.00;;;8.90;36.60;;;;;;10344645;28;20324;-73
2024/03/23 19:33:07;;;;;;;1.60;1.50;;;8.90;36.50;;;;;;10337271;28;20276;-72
2024/03/23 19:38:11;;;;;;;2.37;1.37;;;8.90;36.60;;;;;;10344422;28;20732;-73
2024/03/23 19:43:13;;;;;;;2.00;1.80;;;8.90;36.70;;;;;;10341096;28;20332;-73
2024/03/23 19:48:15;;;;;;;2.83;1.60;;;8.90;36.50;;;;;;10337257;28;20340;-73
2024/03/23 19:53:19;;;;;;;1.83;1.70;;;8.90;36.60;;;;;;10338849;28;21313;-73
2024/03/23 19:58:21;;;;;;;2.30;1.60;;;8.80;36.80;;;;;;10344861;28;20251;-73
2024/03/23 20:03:23;;;;;;;2.43;1.60;;;8.80;36.80;;;;;;10342243;28;20312;-73
2024/03/23 20:08:27;;;;;;;1.87;1.40;;;8.70;36.70;;;;;;10339590;28;20313;-73
2024/03/23 20:13:29;;;;;;;1.90;1.40;;;8.80;36.80;;;;;;10345455;28;20334;-72
2024/03/23 20:18:32;;;;;;;1.50;1.10;;;8.80;36.60;;;;;;10341389;28;20759;-73
2024/03/23 20:23:36;;;;;;;1.83;1.10;;;8.80;36.60;;;;;;10345406;28;20379;-72
2024/03/23 20:28:38;;;;;;;1.90;1.30;;;8.90;36.70;;;;;;10343955;28;20242;-72
2024/03/23 20:33:40;;;;;;;2.10;1.40;;;9.00;36.50;;;;;;10339539;28;20325;-72
2024/03/23 20:38:44;;;;;;;1.27;1.17;;;9.00;36.50;;;;;;10336104;28;20353;-72
2024/03/23 20:43:46;;;;;;;2.57;1.10;;;9.10;36.60;;;;;;10342951;28;20421;-73
2024/03/23 20:48:49;;;;;;;1.33;1.20;;;9.20;36.50;;;;;;10340920;28;20313;-73
2024/03/23 20:53:53;;;;;;;1.70;1.20;;;9.20;36.40;;;;;;10343586;28;20341;-73
2024/03/23 20:58:56;;;;;;;1.63;1.30;;;9.20;36.60;;;;;;10344150;28;20661;-73
2024/03/23 21:03:59;;;;;;;2.73;1.20;;;9.20;36.60;;;;;;10336136;28;20319;-73
2024/03/23 21:09:07;;;;;;;2.53;1.27;;;9.20;36.60;;;;;;10340645;28;20364;-73
2024/03/23 21:14:09;;;;;;;1.90;1.27;;;9.10;37.00;;;;;;10340335;28;20308;-73
2024/03/23 21:19:12;;;;;;;1.67;1.20;;;9.00;37.00;;;;;;10338309;28;20325;-72
2024/03/23 21:24:15;;;;;;;1.87;1.23;;;8.90;36.90;;;;;;10336794;28;20341;-72
2024/03/23 21:29:18;;;;;;;2.10;1.30;;;8.80;37.30;;;;;;10340058;28;20432;-72
2024/03/23 21:34:20;;;;;;;1.30;1.10;;;8.60;37.20;;;;;;10337348;28;20317;-72
2024/03/23 21:39:23;;;;;;;2.27;1.20;;;8.50;37.50;;;;;;10342454;28;20768;-72
2024/03/23 21:44:26;;;;;;;1.70;1.03;;;8.50;37.90;;;;;;10341183;28;20317;-72
2024/03/23 21:49:28;;;;;;;1.33;1.00;;;8.40;37.40;;;;;;10334481;28;20314;-72
2024/03/23 21:54:32;;;;;;;0.80;0.80;;;8.30;37.60;;;;;;10337257;28;21116;-72
2024/03/23 21:59:34;;;;;;;1.17;1.00;;;8.30;37.90;;;;;;10332440;28;20643;-72
2024/03/23 22:04:36;;;;;;;1.00;1.00;;;8.30;37.80;;;;;;10331969;28;20370;-72
2024/03/23 22:09:40;;;;;;;1.40;1.30;;;8.20;37.90;;;;;;10339018;28;20317;-72
2024/03/23 22:14:42;;;;;;;1.30;1.10;;;8.20;38.20;;;;;;10338165;28;20819;-72
2024/03/23 22:19:44;;;;;;;1.20;1.10;;;8.30;38.00;;;;;;10339493;28;20261;-72
2024/03/23 22:24:48;;;;;;;1.07;0.97;;;8.30;37.80;;;;;;10335963;28;20780;-72
2024/03/23 22:29:51;;;;;;;1.53;1.00;;;8.20;38.10;;;;;;10336188;28;20261;-72
2024/03/23 22:34:53;;;;;;;1.40;1.30;;;8.20;38.10;;;;;;10334010;28;20258;-72
2024/03/23 22:39:57;;;;;;;1.73;1.20;;;8.00;38.10;;;;;;10340028;28;20255;-72
2024/03/23 22:44:59;;;;;;;1.93;1.40;;;8.00;38.70;;;;;;10342672;28;20249;-72
2024/03/23 22:50:02;;;;;;;1.43;1.30;;;7.90;38.50;;;;;;10343341;28;20264;-72
2024/03/23 22:55:06;;;;;;;1.97;1.27;;;7.90;38.60;;;;;;10375893;28;20254;-72
2024/03/23 23:00:09;;;;;;;1.60;1.47;;;7.80;39.10;;;;;;10347558;28;20257;-72
2024/03/23 23:05:11;;;;;;;2.10;1.23;;;7.80;39.00;;;;;;10348618;28;20266;-72
2024/03/23 23:10:15;;;;;;;1.20;1.10;;;7.70;39.00;;;;;;10353560;28;20357;-73
2024/03/23 23:15:17;;;;;;;1.00;0.90;;;7.70;39.00;;;;;;10344726;28;20261;-72
2024/03/23 23:20:20;;;;;;;1.83;1.00;;;7.70;38.80;;;;;;10376529;28;20302;-73
2024/03/23 23:25:23;;;;;;;2.17;1.20;;;7.70;38.80;;;;;;10346386;28;20280;-72
2024/03/23 23:30:25;;;;;;;1.00;0.83;;;7.80;39.00;;;;;;10351420;28;20253;-72
2024/03/23 23:35:27;;;;;;;1.73;1.00;;;7.80;38.60;;;;;;10357397;28;20253;-72
2024/03/23 23:40:32;;;;;;;2.00;0.87;;;7.80;38.50;;;;;;10389301;28;20715;-72
2024/03/23 23:45:35;;;;;;;1.10;1.00;;;7.80;38.90;;;;;;10391897;28;20268;-72
2024/03/23 23:50:37;;;;;;;1.83;1.00;;;7.80;38.60;;;;;;10388895;28;20245;-72
2024/03/23 23:55:41;;;;;;;1.97;1.00;;;7.80;38.50;;;;;;10385489;28;20369;-72
